createdAt,value
2023-02-25T00:00:17.823Z,99957.25
2023-02-25T00:02:45.579Z,99954.56
2023-02-25T00:05:13.451Z,99957.25
2023-02-25T00:07:42.467Z,99959.03
2023-02-25T00:10:12.654Z,99961.75
2023-02-25T00:12:40.323Z,99963.56
2023-02-25T00:15:08.325Z,99966.22
2023-02-25T00:17:36.320Z,99971.47
2023-02-25T00:20:09.662Z,99961.81
2023-02-25T00:22:38.622Z,99971.47
2023-02-25T00:25:09.952Z,99977.53
2023-02-25T00:27:37.695Z,99975.75
2023-02-25T00:30:06.475Z,99983.56
2023-02-25T00:32:34.338Z,99991.47
2023-02-25T00:35:02.059Z,99996.72
2023-02-25T00:37:29.767Z,100002.94
2023-02-25T00:39:57.593Z,99997.69
2023-02-25T00:42:26.903Z,100000.16
2023-02-25T00:44:54.580Z,100006.22
2023-02-25T00:47:22.244Z,100014.09
2023-02-25T00:49:50.378Z,100012.44
2023-02-25T00:52:18.121Z,100015.78
2023-02-25T00:54:45.793Z,100015.78
2023-02-25T00:57:13.463Z,100020.25
2023-02-25T00:59:42.485Z,100014.19
2023-02-25T01:02:10.172Z,100025.59
2023-02-25T01:04:37.859Z,100025.56
2023-02-25T01:07:05.616Z,100030.75
2023-02-25T01:09:33.288Z,100036.00
2023-02-25T01:12:00.952Z,100032.44
2023-02-25T01:14:28.769Z,100042.13
2023-02-25T01:17:01.377Z,100043.84
2023-02-25T01:19:29.116Z,100049.97
2023-02-25T01:21:58.140Z,100055.22
2023-02-25T01:24:27.220Z,100059.63
2023-02-25T01:26:57.084Z,100047.44
2023-02-25T01:29:26.353Z,100051.72
2023-02-25T01:31:54.411Z,100066.53
2023-02-25T01:34:23.638Z,100064.00
2023-02-25T01:36:51.315Z,100066.63
2023-02-25T01:39:22.584Z,100068.31
2023-02-25T01:41:51.136Z,100070.13
2023-02-25T01:44:19.753Z,100071.09
2023-02-25T01:46:48.049Z,100079.72
2023-02-25T01:49:17.761Z,100084.97
2023-02-25T01:51:48.283Z,100083.22
2023-02-25T01:54:15.992Z,100086.75
2023-02-25T01:56:49.715Z,100093.75
2023-02-25T01:59:17.496Z,100090.16
2023-02-25T02:01:45.364Z,100090.22
2023-02-25T02:04:13.130Z,100093.00
2023-02-25T02:06:41.324Z,100092.25
2023-02-25T02:09:13.249Z,100098.31
2023-02-25T02:11:41.000Z,100097.47
2023-02-25T02:14:09.157Z,100100.16
2023-02-25T02:17:15.220Z,100108.09
2023-02-25T02:19:51.219Z,100109.84
2023-02-25T02:22:24.115Z,100109.16
2023-02-25T02:25:12.463Z,100116.09
2023-02-25T02:27:52.706Z,100117.81
2023-02-25T02:30:31.414Z,100119.59
2023-02-25T02:33:02.470Z,100126.44
2023-02-25T02:35:32.499Z,100129.16
2023-02-25T02:38:12.286Z,100126.53
2023-02-25T02:40:44.521Z,100127.44
2023-02-25T02:43:33.340Z,100130.91
2023-02-25T02:46:04.538Z,100140.44
2023-02-25T02:48:35.676Z,100143.94
2023-02-25T02:51:05.008Z,100152.69
2023-02-25T02:53:33.606Z,100151.75
2023-02-25T02:56:02.108Z,100150.81
2023-02-25T02:58:30.925Z,100149.00
2023-02-25T03:01:00.250Z,100149.06
2023-02-25T03:03:36.289Z,100140.28
2023-02-25T03:06:06.672Z,100156.03
2023-02-25T03:08:36.270Z,100162.31
2023-02-25T03:11:05.493Z,100167.56
2023-02-25T03:13:33.191Z,100169.38
2023-02-25T03:16:01.109Z,100170.28
2023-02-25T03:18:32.753Z,100178.09
2023-02-25T03:21:00.411Z,100178.91
2023-02-25T03:23:30.341Z,100192.06
2023-02-25T03:26:00.630Z,100192.91
2023-02-25T03:28:30.850Z,100199.09
2023-02-25T03:31:01.523Z,100201.72
2023-02-25T03:33:33.237Z,100206.13
2023-02-25T03:36:01.148Z,100206.91
2023-02-25T03:38:30.537Z,100209.50
2023-02-25T03:40:58.297Z,100219.97
2023-02-25T03:43:28.594Z,100212.13
2023-02-25T03:45:56.634Z,100217.44
2023-02-25T03:48:24.361Z,100226.19
2023-02-25T03:50:53.817Z,100224.47
2023-02-25T03:53:21.893Z,100240.19
2023-02-25T03:55:50.935Z,100239.31
2023-02-25T03:58:18.600Z,100235.00
2023-02-25T04:00:47.834Z,100238.56
2023-02-25T04:03:15.737Z,100245.47
2023-02-25T04:05:43.508Z,100247.22
2023-02-25T04:08:15.768Z,100253.38
2023-02-25T04:10:44.131Z,100261.25
2023-02-25T04:13:13.694Z,100257.75
2023-02-25T04:15:41.495Z,100267.44
2023-02-25T04:18:09.374Z,100269.19
2023-02-25T04:20:37.079Z,100269.28
2023-02-25T04:23:04.747Z,100267.44
2023-02-25T04:25:32.463Z,100275.22
2023-02-25T04:28:00.184Z,100280.47
2023-02-25T04:30:29.212Z,100276.19
2023-02-25T04:32:56.869Z,100277.13
2023-02-25T04:35:24.565Z,100280.69
2023-02-25T04:37:52.224Z,100286.03
2023-02-25T04:40:20.920Z,100285.13
2023-02-25T04:42:48.699Z,100281.59
2023-02-25T04:45:16.535Z,100291.25
2023-02-25T04:47:45.634Z,100293.84
2023-02-25T04:50:13.451Z,100296.47
2023-02-25T04:52:41.120Z,100302.56
2023-02-25T04:55:11.611Z,100307.84
2023-02-25T04:57:42.185Z,100310.53
2023-02-25T05:00:16.142Z,100302.69
2023-02-25T05:02:45.183Z,100310.53
2023-02-25T05:05:14.451Z,100307.09
2023-02-25T05:07:42.209Z,100303.72
2023-02-25T05:10:11.762Z,100311.56
2023-02-25T05:12:39.488Z,100315.94
2023-02-25T05:15:08.691Z,100315.94
2023-02-25T05:17:36.658Z,100322.94
2023-02-25T05:20:11.746Z,100326.38
2023-02-25T05:22:39.592Z,100316.66
2023-02-25T05:25:07.831Z,100320.19
2023-02-25T05:27:35.608Z,100321.09
2023-02-25T05:30:03.407Z,100319.28
2023-02-25T05:32:31.255Z,100317.53
2023-02-25T05:34:59.065Z,100317.38
2023-02-25T05:37:28.116Z,100328.53
2023-02-25T05:39:55.773Z,100329.34
2023-02-25T05:42:23.455Z,100330.06
2023-02-25T05:44:51.228Z,100340.56
2023-02-25T05:47:19.015Z,100343.13
2023-02-25T05:49:46.702Z,100338.75
2023-02-25T05:52:14.534Z,100349.16
2023-02-25T05:54:43.850Z,100341.38
2023-02-25T05:57:11.536Z,100350.28
2023-02-25T05:59:39.237Z,100352.03
2023-02-25T06:02:06.957Z,100359.84
2023-02-25T06:04:34.713Z,100369.38
2023-02-25T06:07:03.356Z,100371.09
2023-02-25T06:09:32.054Z,100374.59
2023-02-25T06:12:01.224Z,100372.91
2023-02-25T06:14:28.941Z,100385.19
2023-02-25T06:16:57.194Z,100394.03
2023-02-25T06:19:26.240Z,100407.13
2023-02-25T06:21:54.746Z,100404.59
2023-02-25T06:24:22.484Z,100405.44
2023-02-25T06:26:50.213Z,100408.84
2023-02-25T06:29:19.356Z,100415.69
2023-02-25T06:31:47.170Z,100417.47
2023-02-25T06:34:14.932Z,100425.34
2023-02-25T06:36:42.621Z,100422.72
2023-02-25T06:39:11.582Z,100425.34
2023-02-25T06:41:39.249Z,100435.00
2023-02-25T06:44:06.971Z,100435.94
2023-02-25T06:46:36.037Z,100438.53
2023-02-25T06:49:03.711Z,100444.63
2023-02-25T06:51:31.394Z,100445.44
2023-02-25T06:53:59.519Z,100447.25
2023-02-25T06:56:29.093Z,100455.13
2023-02-25T06:58:59.168Z,100459.41
2023-02-25T07:01:26.905Z,100458.53
2023-02-25T07:03:55.996Z,100458.59
2023-02-25T07:06:23.950Z,100460.31
2023-02-25T07:08:51.936Z,100473.44
2023-02-25T07:11:29.143Z,100465.56
2023-02-25T07:13:57.141Z,100478.69
2023-02-25T07:16:25.169Z,100476.09
2023-02-25T07:18:56.062Z,100486.59
2023-02-25T07:21:29.284Z,100494.41
2023-02-25T07:23:56.968Z,100499.56
2023-02-25T07:26:28.172Z,100504.88
2023-02-25T07:28:57.068Z,100509.25
2023-02-25T07:31:25.076Z,100511.88
2023-02-25T07:33:52.991Z,100515.44
2023-02-25T07:36:20.693Z,100519.81
2023-02-25T07:38:49.762Z,100527.69
2023-02-25T07:41:18.564Z,100534.69
2023-02-25T07:43:46.252Z,100535.50
2023-02-25T07:46:14.224Z,100535.53
2023-02-25T07:48:42.012Z,100538.16
2023-02-25T07:51:10.863Z,100550.44
2023-02-25T07:53:38.592Z,100551.41
2023-02-25T07:56:07.921Z,100561.94
2023-02-25T07:58:35.664Z,100566.22
2023-02-25T08:01:07.812Z,100568.88
2023-02-25T08:03:35.500Z,100573.97
2023-02-25T08:06:07.859Z,100581.75
2023-02-25T08:08:35.629Z,100580.91
2023-02-25T08:11:07.589Z,100586.03
2023-02-25T08:13:35.255Z,100588.63
2023-02-25T08:16:05.257Z,100595.66
2023-02-25T08:18:32.938Z,100596.50
2023-02-25T08:21:02.777Z,100596.53
2023-02-25T08:23:30.711Z,100609.63
2023-02-25T08:25:59.114Z,100616.56
2023-02-25T08:28:31.089Z,100616.50
2023-02-25T08:31:00.511Z,100630.47
2023-02-25T08:33:28.733Z,100630.47
2023-02-25T08:35:56.459Z,100633.97
2023-02-25T08:38:24.125Z,100634.91
2023-02-25T08:40:51.828Z,100640.13
2023-02-25T08:43:19.519Z,100649.66
2023-02-25T08:45:48.551Z,100653.97
2023-02-25T08:48:16.936Z,100660.97
2023-02-25T08:50:44.622Z,100663.66
2023-02-25T08:53:12.625Z,100651.44
2023-02-25T08:55:40.383Z,100664.41
2023-02-25T08:58:08.728Z,100675.78
2023-02-25T09:00:37.866Z,100681.03
2023-02-25T09:03:07.111Z,100685.41
2023-02-25T09:05:34.816Z,100688.81
2023-02-25T09:08:02.640Z,100697.50
2023-02-25T09:10:38.663Z,100705.28
2023-02-25T09:13:12.408Z,100708.75
2023-02-25T09:15:40.102Z,100719.22
2023-02-25T09:18:09.122Z,100717.44
2023-02-25T09:20:36.772Z,100723.53
2023-02-25T09:23:04.469Z,100727.00
2023-02-25T09:25:32.151Z,100732.25
2023-02-25T09:27:59.837Z,100734.88
2023-02-25T09:30:27.530Z,100734.88
2023-02-25T09:32:55.324Z,100756.81
2023-02-25T09:35:24.532Z,100767.22
2023-02-25T09:37:52.237Z,100766.28
2023-02-25T09:40:22.725Z,100770.59
2023-02-25T09:42:55.224Z,100776.69
2023-02-25T09:45:23.497Z,100783.50
2023-02-25T09:47:53.289Z,100790.41
2023-02-25T09:50:22.442Z,100791.22
2023-02-25T09:52:55.161Z,100799.09
2023-02-25T09:55:24.467Z,100798.25
2023-02-25T09:57:57.042Z,100806.91
2023-02-25T10:00:24.857Z,100809.56
2023-02-25T10:02:55.226Z,100817.38
2023-02-25T10:05:25.318Z,100819.03
2023-02-25T10:07:59.095Z,100824.28
2023-02-25T10:10:28.693Z,100821.66
2023-02-25T10:12:59.861Z,100822.53
2023-02-25T10:15:35.397Z,100834.75
2023-02-25T10:18:12.327Z,100840.00
2023-02-25T10:21:00.983Z,100845.13
2023-02-25T10:23:37.701Z,100847.72
2023-02-25T10:26:09.073Z,100853.91
2023-02-25T10:28:36.790Z,100855.63
2023-02-25T10:31:06.534Z,100862.59
2023-02-25T10:33:36.818Z,100865.22
2023-02-25T10:36:08.665Z,100871.31
2023-02-25T10:38:41.907Z,100867.78
2023-02-25T10:41:09.577Z,100882.75
2023-02-25T10:43:37.326Z,100875.78
2023-02-25T10:46:09.385Z,100874.06
2023-02-25T10:48:38.106Z,100879.31
2023-02-25T10:51:09.747Z,100886.34
2023-02-25T10:53:38.938Z,100900.44
2023-02-25T10:56:06.943Z,100893.47
2023-02-25T10:58:40.795Z,100896.13
2023-02-25T11:01:13.651Z,100909.16
2023-02-25T11:03:53.661Z,100914.19
2023-02-25T11:06:26.962Z,100906.28
2023-02-25T11:08:58.504Z,100910.66
2023-02-25T11:11:28.173Z,100913.31
2023-02-25T11:14:01.918Z,100921.19
2023-02-25T11:16:29.804Z,100919.41
2023-02-25T11:18:58.670Z,100914.94
2023-02-25T11:21:34.488Z,100911.38
2023-02-25T11:24:04.811Z,100918.34
2023-02-25T11:26:34.368Z,100914.72
2023-02-25T11:29:02.961Z,100916.38
2023-02-25T11:31:33.158Z,100920.72
2023-02-25T11:34:03.330Z,100923.28
2023-02-25T11:36:31.501Z,100929.34
2023-02-25T11:39:09.036Z,100920.53
2023-02-25T11:41:36.719Z,100922.25
2023-02-25T11:44:28.191Z,100938.00
2023-02-25T11:47:08.325Z,100934.44
2023-02-25T11:49:58.179Z,100936.19
2023-02-25T11:52:27.455Z,100945.81
2023-02-25T11:55:03.435Z,100946.63
2023-02-25T11:57:34.266Z,100948.34
2023-02-25T12:00:11.396Z,100949.13
2023-02-25T12:02:45.160Z,100942.00
2023-02-25T12:05:51.353Z,100943.63
2023-02-25T12:08:33.039Z,100936.53
2023-02-25T12:11:25.128Z,100946.16
2023-02-25T12:14:33.974Z,100944.44
2023-02-25T12:17:26.879Z,100958.47
2023-02-25T12:20:42.014Z,100950.69
2023-02-25T12:23:40.475Z,100947.94
2023-02-25T12:26:09.668Z,100949.66
2023-02-25T12:28:56.737Z,100945.22
2023-02-25T12:32:03.387Z,100953.00
2023-02-25T12:34:43.209Z,100957.34
2023-02-25T12:37:24.059Z,100948.50
2023-02-25T12:39:59.520Z,100958.81
2023-02-25T12:42:42.131Z,100958.72
2023-02-25T12:45:48.442Z,100960.31
2023-02-25T12:48:48.238Z,100963.81
2023-02-25T12:51:34.506Z,100959.56
2023-02-25T12:54:07.929Z,100966.63
2023-02-25T12:57:00.566Z,100978.97
2023-02-25T12:59:47.529Z,100976.16
2023-02-25T13:02:36.992Z,100982.09
2023-02-25T13:05:13.268Z,100980.97
2023-02-25T13:08:23.996Z,100985.34
2023-02-25T13:10:55.622Z,100992.53
2023-02-25T13:13:46.277Z,101001.28
2023-02-25T13:16:19.763Z,101001.94
2023-02-25T13:18:53.321Z,100995.69
2023-02-25T13:21:28.413Z,101000.88
2023-02-25T13:24:14.269Z,101018.53
2023-02-25T13:27:00.918Z,101024.72
2023-02-25T13:29:36.929Z,101012.31
2023-02-25T13:32:18.756Z,101019.16
2023-02-25T13:34:50.854Z,101026.88
2023-02-25T13:37:26.792Z,101024.94
2023-02-25T13:40:05.208Z,101023.28
2023-02-25T13:42:48.413Z,101024.22
2023-02-25T13:46:02.177Z,101029.41
2023-02-25T13:48:48.683Z,101032.78
2023-02-25T13:51:55.964Z,101036.91
2023-02-25T13:54:34.907Z,101032.41
2023-02-25T13:57:16.229Z,101034.13
2023-02-25T14:00:03.182Z,101048.19
2023-02-25T14:02:57.135Z,101050.72
2023-02-25T14:05:51.582Z,101044.44
2023-02-25T14:08:29.697Z,101054.81
2023-02-25T14:11:03.749Z,101053.78
2023-02-25T14:13:52.097Z,101068.69
2023-02-25T14:16:33.052Z,101061.66
2023-02-25T14:19:08.711Z,101075.84
2023-02-25T14:21:44.817Z,101071.28
2023-02-25T14:24:14.881Z,101076.19
2023-02-25T14:26:46.618Z,101077.59
2023-02-25T14:29:19.678Z,101085.53
2023-02-25T14:31:54.824Z,101078.78
2023-02-25T14:34:32.592Z,101084.91
2023-02-25T14:37:07.316Z,101087.97
2023-02-25T14:39:44.374Z,101097.75
2023-02-25T14:42:33.542Z,101102.22
2023-02-25T14:45:03.008Z,101110.22
2023-02-25T14:47:31.881Z,101117.91
2023-02-25T14:50:01.383Z,101119.31
2023-02-25T14:52:43.605Z,101117.19
2023-02-25T14:55:35.141Z,101109.13
2023-02-25T14:58:26.489Z,101106.31
2023-02-25T15:01:12.884Z,101119.31
2023-02-25T15:03:49.376Z,101107.66
2023-02-25T15:06:40.821Z,101108.38
2023-02-25T15:09:32.617Z,101112.66
2023-02-25T15:12:09.940Z,101112.56
2023-02-25T15:15:00.016Z,101117.72
2023-02-25T15:17:43.967Z,101119.44
2023-02-25T15:20:20.062Z,101125.66
2023-02-25T15:22:56.689Z,101137.75
2023-02-25T15:25:37.821Z,101149.63
2023-02-25T15:28:16.489Z,101150.00
2023-02-25T15:33:43.639Z,101150.50
2023-02-25T15:36:22.564Z,101148.91
2023-02-25T15:38:50.801Z,101150.81
2023-02-25T15:41:38.349Z,101153.63
2023-02-25T15:44:30.112Z,101163.47
2023-02-25T15:47:24.964Z,101169.84
2023-02-25T15:49:54.852Z,101184.06
2023-02-25T15:52:51.335Z,101180.72
2023-02-25T15:55:22.476Z,101181.69
2023-02-25T15:57:50.185Z,101180.00
2023-02-25T16:00:49.837Z,101184.47
2023-02-25T16:03:42.312Z,101192.28
2023-02-25T16:06:17.399Z,101191.19
2023-02-25T16:08:50.258Z,101196.31
2023-02-25T16:11:27.193Z,101211.06
2023-02-25T16:13:54.901Z,101209.38
2023-02-25T16:16:22.934Z,101210.34
2023-02-25T16:18:51.573Z,101211.31
2023-02-25T16:21:23.679Z,101213.16
2023-02-25T16:23:51.593Z,101219.41
2023-02-25T16:26:26.412Z,101226.56
2023-02-25T16:28:55.860Z,101225.84
2023-02-25T16:31:25.691Z,101228.63
2023-02-25T16:33:54.598Z,101244.56
2023-02-25T16:36:29.151Z,101253.38
2023-02-25T16:38:58.588Z,101257.94
2023-02-25T16:41:33.301Z,101257.31
2023-02-25T16:44:05.639Z,101260.13
2023-02-25T16:46:34.473Z,101255.00
2023-02-25T16:49:02.851Z,101248.91
2023-02-25T16:51:33.584Z,101269.09
2023-02-25T16:54:06.252Z,101270.94
2023-02-25T16:56:33.960Z,101277.16
2023-02-25T16:59:04.901Z,101267.59
2023-02-25T17:01:33.391Z,101267.69
2023-02-25T17:04:02.383Z,101282.56
2023-02-25T17:06:31.459Z,101280.88
2023-02-25T17:08:59.171Z,101282.63
2023-02-25T17:11:26.848Z,101280.94
2023-02-25T17:13:55.941Z,101289.75
2023-02-25T17:16:26.854Z,101289.81
2023-02-25T17:18:56.017Z,101296.84
2023-02-25T17:21:24.972Z,101299.47
2023-02-25T17:23:54.055Z,101302.13
2023-02-25T17:26:21.975Z,101315.25
2023-02-25T17:28:50.821Z,101316.19
2023-02-25T17:31:19.645Z,101316.19
2023-02-25T17:33:48.279Z,101319.81
2023-02-25T17:36:16.488Z,101328.63
2023-02-25T17:38:44.206Z,101326.84
2023-02-25T17:41:17.058Z,101337.41
2023-02-25T17:43:44.811Z,101341.81
2023-02-25T17:46:25.340Z,101343.59
2023-02-25T17:48:54.904Z,101348.88
2023-02-25T17:51:29.112Z,101355.06
2023-02-25T17:53:57.196Z,101363.78
2023-02-25T17:56:27.522Z,101366.44
2023-02-25T17:58:59.742Z,101367.34
2023-02-25T18:01:28.836Z,101368.25
2023-02-25T18:03:56.697Z,101376.13
2023-02-25T18:06:39.486Z,101384.09
2023-02-25T18:09:07.254Z,101383.22
2023-02-25T18:11:37.684Z,101390.25
2023-02-25T18:14:20.266Z,101398.16
2023-02-25T18:16:47.987Z,101406.03
2023-02-25T18:19:32.179Z,101410.38
2023-02-25T18:21:59.880Z,101412.09
2023-02-25T18:24:30.897Z,101422.59
2023-02-25T18:27:26.877Z,101427.81
2023-02-25T18:29:54.982Z,101423.44
2023-02-25T18:32:22.724Z,101433.97
2023-02-25T18:34:50.445Z,101430.47
2023-02-25T18:37:18.446Z,101438.31
2023-02-25T18:39:47.545Z,101433.94
2023-02-25T18:42:16.366Z,101427.81
2023-02-25T18:44:45.848Z,101433.94
2023-02-25T18:47:13.695Z,101432.16
2023-02-25T18:49:41.406Z,101438.31
2023-02-25T18:52:14.259Z,101440.91
2023-02-25T18:54:42.912Z,101432.13
2023-02-25T18:57:16.926Z,101435.66
2023-02-25T18:59:46.048Z,101443.53
2023-02-25T19:02:23.117Z,101439.19
2023-02-25T19:04:50.871Z,101445.25
2023-02-25T19:07:18.977Z,101440.88
2023-02-25T19:09:46.680Z,101447.88
2023-02-25T19:12:14.788Z,101449.69
2023-02-25T19:14:42.737Z,101454.94
2023-02-25T19:17:15.735Z,101452.31
2023-02-25T19:19:46.320Z,101454.06
2023-02-25T19:22:15.453Z,101456.69
2023-02-25T19:24:43.299Z,101458.38
2023-02-25T19:27:17.119Z,101463.59
2023-02-25T19:29:44.811Z,101468.88
2023-02-25T19:32:13.903Z,101465.41
2023-02-25T19:34:42.659Z,101456.66
2023-02-25T19:37:10.432Z,101464.53
2023-02-25T19:39:38.172Z,101459.31
2023-02-25T19:42:05.941Z,101468.97
2023-02-25T19:44:33.806Z,101467.19
2023-02-25T19:47:01.519Z,101480.31
2023-02-25T19:49:30.617Z,101481.19
2023-02-25T19:51:58.312Z,101482.94
2023-02-25T19:54:26.192Z,101488.19
2023-02-25T19:56:53.907Z,101489.97
2023-02-25T19:59:21.591Z,101482.13
2023-02-25T20:01:49.655Z,101479.53
2023-02-25T20:04:17.564Z,101489.19
2023-02-25T20:06:46.682Z,101500.53
2023-02-25T20:09:14.456Z,101504.91
2023-02-25T20:11:43.063Z,101500.53
2023-02-25T20:14:12.393Z,101509.25
2023-02-25T20:16:40.506Z,101510.13
2023-02-25T20:19:08.377Z,101504.88
2023-02-25T20:21:36.118Z,101513.63
2023-02-25T20:24:05.732Z,101513.63
2023-02-25T20:26:33.581Z,101514.53
2023-02-25T20:29:01.378Z,101525.00
2023-02-25T20:31:29.150Z,101522.41
2023-02-25T20:33:57.984Z,101525.03
2023-02-25T20:36:27.145Z,101526.81
2023-02-25T20:39:13.194Z,101539.06
2023-02-25T20:41:41.983Z,101526.84
2023-02-25T20:44:09.943Z,101533.81
2023-02-25T20:46:37.860Z,101535.56
2023-02-25T20:49:05.903Z,101537.31
2023-02-25T20:51:34.605Z,101539.94
2023-02-25T20:54:03.696Z,101545.19
2023-02-25T20:56:34.551Z,101547.84
2023-02-25T20:59:02.253Z,101554.81
2023-02-25T21:01:29.941Z,101552.19
2023-02-25T21:03:57.702Z,101553.06
2023-02-25T21:06:26.438Z,101551.34
2023-02-25T21:08:54.327Z,101563.59
2023-02-25T21:11:22.167Z,101571.44
2023-02-25T21:13:51.477Z,101574.97
2023-02-25T21:16:19.799Z,101570.56
2023-02-25T21:18:47.628Z,101581.94
2023-02-25T21:21:16.317Z,101576.72
2023-02-25T21:23:44.203Z,101581.13
2023-02-25T21:26:12.269Z,101582.88
2023-02-25T21:28:40.914Z,101595.09
2023-02-25T21:31:11.527Z,101585.50
2023-02-25T21:33:39.510Z,101589.91
2023-02-25T21:36:07.979Z,101589.91
2023-02-25T21:38:36.262Z,101587.28
2023-02-25T21:41:05.934Z,101582.94
2023-02-25T21:43:33.645Z,101589.94
2023-02-25T21:46:02.182Z,101589.94
2023-02-25T21:48:31.431Z,101599.53
2023-02-25T21:50:59.196Z,101602.19
2023-02-25T21:53:27.625Z,101605.69
2023-02-25T21:55:55.431Z,101604.84
2023-02-25T21:58:23.176Z,101604.88
2023-02-25T22:00:50.895Z,101608.34
2023-02-25T22:03:18.611Z,101616.19
2023-02-25T22:05:47.748Z,101618.81
2023-02-25T22:08:15.905Z,101619.72
2023-02-25T22:10:43.696Z,101623.22
2023-02-25T22:13:11.414Z,101627.59
2023-02-25T22:15:39.206Z,101626.75
2023-02-25T22:18:06.922Z,101627.59
2023-02-25T22:20:34.614Z,101637.25
2023-02-25T22:23:03.717Z,101638.16
2023-02-25T22:25:31.391Z,101631.19
2023-02-25T22:27:59.568Z,101643.41
2023-02-25T22:30:27.293Z,101642.53
2023-02-25T22:32:54.996Z,101649.56
2023-02-25T22:35:22.687Z,101653.03
2023-02-25T22:37:50.389Z,101657.41
2023-02-25T22:40:19.415Z,101666.09
2023-02-25T22:42:47.075Z,101658.22
2023-02-25T22:45:14.788Z,101667.81
2023-02-25T22:47:43.112Z,101670.44
2023-02-25T22:50:12.048Z,101679.19
2023-02-25T22:52:39.772Z,101684.47
2023-02-25T22:55:08.688Z,101688.81
2023-02-25T22:57:37.722Z,101701.06
2023-02-25T23:00:07.903Z,101712.44
2023-02-25T23:02:35.630Z,101718.53
2023-02-25T23:05:03.375Z,101718.50
2023-02-25T23:07:31.043Z,101712.41
2023-02-25T23:09:58.732Z,101712.44
2023-02-25T23:12:26.403Z,101698.47
2023-02-25T23:14:55.412Z,101713.31
2023-02-25T23:17:23.109Z,101707.19
2023-02-25T23:19:50.782Z,101702.81
2023-02-25T23:22:24.988Z,101709.81
2023-02-25T23:24:52.654Z,101717.66
2023-02-25T23:27:20.324Z,101723.81
2023-02-25T23:29:47.987Z,101736.03
2023-02-25T23:32:17.031Z,101725.53
2023-02-25T23:34:44.704Z,101732.53
2023-02-25T23:37:13.249Z,101750.03
2023-02-25T23:39:41.788Z,101750.03
2023-02-25T23:42:09.772Z,101751.78
2023-02-25T23:44:37.669Z,101757.03
2023-02-25T23:47:05.559Z,101761.41
2023-02-25T23:49:34.604Z,101770.19
2023-02-25T23:52:02.316Z,101778.91
2023-02-25T23:54:30.045Z,101773.66
2023-02-25T23:56:57.722Z,101779.78
2023-02-25T23:59:25.404Z,101780.69
